Barkhamsted, CT

3:15 AM EST on November 27, 2014 (GMT -0500)
NEWDAYHD.tv Weather | Change Station
CLOSE
Current Station
Personal Weather Station
Location: Winsted, CT
Elevation: 679 ft
Nearby Weather Stations

Elev 679 ft 41.95 °N, 73.04 °W | Updated 49 seconds ago

Overcast
Overcast
29.2 °F
Feels Like 29 °F
N
0.0
Wind Variable Wind from East
Gusts 4.0 mph

Today
High -- | Low -- °F
--% Chance of Precip.
Yesterday
High -- | Low -- °F
Precip. -- in
6:55 AM 4:23 PM
Waxing Crescent, 27% visible
Pressure 29.83 in
Visibility 6.0 miles
Clouds Few 2400 ft
Overcast 5000 ft
Windchill 29 °F
Dew Point 28 °F
Humidity 97%
Rainfall 0.00 in
Snow Depth Not available.
UV 0 out of 12
Pollen .10 out of 12
Air Quality Not available.
Flu Activity Not available.
METAR KBDL 270751Z 01004KT 6SM -SN BR FEW024 OVC050 01/M01 A2982 RMK AO2 SLP099 P0001 T00111006 $

More Conditions Fewer Conditions

Pressure 29.83 in
Visibility 6.0 miles
Clouds Few 2400 ft
Overcast 5000 ft
Windchill 29 °F
Dew Point 28 °F
Humidity 97%
Rainfall 0.00 in
Snow Depth Not available.
UV 0 out of 12
Pollen .10 out of 12
Air Quality Not available.
Flu Activity Not available.
METAR KBDL 270751Z 01004KT 6SM -SN BR FEW024 OVC050 01/M01 A2982 RMK AO2 SLP099 P0001 T00111006 $

More Conditions Fewer Conditions

10-Day Weather Forecast

Almanac

Astronomy

Nov. 27, 2014 Rise Set
Actual Time
Civil Twilight
Nautical Twilight
Astronomical Twilight
Moon
Length of Visible Light
Length of Day
Tomorrow will be .
, % of the Moon is Illuminated

Today's Extremes

State Highs State Lows

Community

WunderPhotos

Upload Photos

1,773,965 photos uploaded!

WunderBlogs® & News

Nearby

Air Quality

  Air Quality AQ Index Pollutant
Not available.

Snow Depth

Station Depth Elevation

Earthquake Activity

City Distance Mag. Time & Date
Minimum magnitude displayed is 2.5.

Coastal Water Temperatures

Place Temperature

Nearby Weather Stations